MSC Maria Saveria — 3FLE8 — position and weather

sailwx.info

Track history (hours):
 
Tides and Currents Weather Stations Pressure Air Temp Water Temp Dewpoint Dewpoint Depression Visibility Wind Speed Wind Dir Waves Ship Positions

MSC Maria Saveria

Last reported at 2018-Apr-16 01:06 UTC. Time now 2018-Apr-20 14:45 UTC.
Position N 01°15' E 104°03'.

Length 366 m; draft 9.3 m.

Type: Ship (hazmat cat A). MMSI: 372400000.

Date/timePositionNaut miles runAvg speedWind from/ knotsBaromVisibWave heightAir tempDewpointWater temp
2018-Apr-16 01:06N 01°15' E 104°03'116.0
2018-Apr-16 01:00N 01°14' E 104°01'612.9
2018-Apr-16 00:30N 01°13' E 103°55'2 4.3
2018-Apr-16 00:00N 01°15' E 103°53'0 0.6
2018-Apr-15 23:30N 01°14' E 103°53'0 0.3
2018-Apr-15 23:00N 01°14' E 103°53'0 0.1
2018-Apr-15 22:30N 01°15' E 103°53'0 0.0
2018-Apr-15 22:00N 01°15' E 103°53'0 0.0
2018-Apr-15 21:27N 01°15' E 103°53'0 0.0
2018-Apr-15 21:00N 01°15' E 103°53'0 0.0
2018-Apr-15 20:30N 01°15' E 103°53'0 0.0
2018-Apr-15 20:00N 01°15' E 103°53'0 0.0
2018-Apr-15 19:30N 01°15' E 103°53'0 0.1
2018-Apr-15 19:00N 01°14' E 103°53'0 0.1
2018-Apr-15 18:30N 01°14' E 103°53'0 0.1
2018-Apr-15 18:00N 01°14' E 103°53'0 0.1
2018-Apr-15 17:30N 01°14' E 103°53'0 0.1
2018-Apr-15 17:00N 01°14' E 103°53'0 0.0
2018-Apr-15 16:27N 01°14' E 103°53'0 0.0
2018-Apr-15 16:00N 01°14' E 103°53'0 0.0
2018-Apr-15 15:30N 01°14' E 103°53'0 0.0
2018-Apr-15 15:00N 01°14' E 103°53'0 0.0
2018-Apr-15 14:30N 01°14' E 103°53'0 0.0
2018-Apr-15 14:00N 01°14' E 103°53'0 0.0
2018-Apr-15 13:30N 01°14' E 103°53'0 0.0
2018-Apr-15 13:00N 01°14' E 103°53'0 0.0
2018-Apr-15 12:30N 01°14' E 103°53'0 0.0
2018-Apr-15 12:00N 01°14' E 103°53'0 0.1
2018-Apr-15 11:30N 01°14' E 103°53'0 0.0
2018-Apr-15 11:00N 01°14' E 103°53'0 0.0
2018-Apr-15 10:30N 01°14' E 103°53'0 0.1
2018-Apr-15 10:00N 01°14' E 103°53'0 0.1
2018-Apr-15 09:30N 01°15' E 103°53'0 0.1
2018-Apr-15 09:00N 01°15' E 103°53'0 0.3
2018-Apr-15 08:30N 01°15' E 103°53'0 0.0
2018-Apr-15 08:00N 01°15' E 103°53'0 0.0
2018-Apr-15 07:30N 01°15' E 103°53'0 0.1
2018-Apr-15 07:00N 01°15' E 103°53'0 0.1
2018-Apr-15 06:30N 01°15' E 103°53'0 0.1
2018-Apr-15 06:00N 01°15' E 103°53'0 0.0
2018-Apr-15 05:30N 01°15' E 103°53'0 0.1
2018-Apr-15 04:57N 01°15' E 103°53'0 0.1
2018-Apr-15 04:24N 01°14' E 103°53'0 0.1
2018-Apr-15 04:00N 01°14' E 103°53'0 0.0
2018-Apr-15 03:30N 01°14' E 103°53'0 0.0
2018-Apr-15 03:00N 01°14' E 103°53'0 0.0
2018-Apr-15 02:30N 01°14' E 103°53'0 0.1
2018-Apr-15 02:00N 01°14' E 103°53'0 0.1
2018-Apr-15 01:30N 01°14' E 103°53'0 0.0
2018-Apr-15 01:00N 01°14' E 103°53'0 0.0
2018-Apr-15 00:30N 01°14' E 103°53'0 0.0
2018-Apr-15 00:00N 01°14' E 103°53'0 0.0
2018-Apr-14 23:30N 01°14' E 103°53'0 0.1
2018-Apr-14 23:00N 01°14' E 103°53'0 0.0
2018-Apr-14 22:29N 01°14' E 103°53'0 0.1
2018-Apr-14 22:00N 01°14' E 103°53'0 0.0
2018-Apr-14 21:23N 01°14' E 103°53'0 0.0
2018-Apr-14 20:59N 01°14' E 103°53'0 0.0
2018-Apr-14 20:24N 01°15' E 103°53'0 0.0
2018-Apr-14 19:59N 01°15' E 103°53'0 0.0
2018-Apr-14 19:30N 01°15' E 103°53'0 0.0
2018-Apr-14 19:00N 01°14' E 103°53'0 0.1
2018-Apr-14 18:30N 01°15' E 103°53'0 0.0
2018-Apr-14 18:00N 01°15' E 103°53'1 2.9
2018-Apr-14 17:30N 01°13' E 103°53'611.1
2018-Apr-14 17:00N 01°13' E 103°47'3 6.0
2018-Apr-14 16:29N 01°16' E 103°46'0 0.1
2018-Apr-14 16:00N 01°16' E 103°46'0 0.0
2018-Apr-14 15:30N 01°16' E 103°46'0 0.0
2018-Apr-14 15:00N 01°16' E 103°46'0 0.0
2018-Apr-14 14:30N 01°16' E 103°46'0 0.0
2018-Apr-14 14:00N 01°16' E 103°46'0 0.0
2018-Apr-14 13:30N 01°16' E 103°46'0 0.0
2018-Apr-14 13:00N 01°16' E 103°46'0 0.0
2018-Apr-14 12:30N 01°16' E 103°46'0 0.0
2018-Apr-14 12:00N 01°16' E 103°46'0 0.0
2018-Apr-14 11:30N 01°16' E 103°46'0 0.0
2018-Apr-14 11:00N 01°16' E 103°46'0 0.0
2018-Apr-14 10:30N 01°16' E 103°46'0 0.0
2018-Apr-14 10:00N 01°16' E 103°46'0 0.0
2018-Apr-14 09:30N 01°16' E 103°46'0 0.0
2018-Apr-14 09:00N 01°16' E 103°46'0 0.0
2018-Apr-14 08:30N 01°16' E 103°46'0 0.0
2018-Apr-14 07:58N 01°16' E 103°46'1 2.4
2018-Apr-14 07:30N 01°15' E 103°46'5 9.6
2018-Apr-14 07:00N 01°13' E 103°42'511.0
2018-Apr-14 06:30N 01°13' E 103°36'4 8.8
2018-Apr-14 06:00N 01°11' E 103°32'510.8
2018-Apr-14 05:30N 01°10' E 103°27'713.5
2018-Apr-14 04:59N 01°14' E 103°21'814.4
2018-Apr-14 04:27N 01°19' E 103°15'  
Track history (hours):
 
Tides and Currents Weather Stations Pressure Air Temp Water Temp Dewpoint Dewpoint Depression Visibility Wind Speed Wind Dir Waves Ship Positions

MSC Maria Saveria

Last reported at 2018-Apr-16 01:06 UTC. Time now 2018-Apr-20 14:45 UTC.
Position N 01°15' E 104°03'.

Length 366 m; draft 9.3 m.

Type: Ship (hazmat cat A). MMSI: 372400000.

Date/timePositionNaut miles runAvg speedWind from/ knotsBaromVisibWave heightAir tempDewpointWater temp
2018-Apr-16 01:06N 01°15' E 104°03'116.0
2018-Apr-16 01:00N 01°14' E 104°01'612.9
2018-Apr-16 00:30N 01°13' E 103°55'2 4.3
2018-Apr-16 00:00N 01°15' E 103°53'0 0.6
2018-Apr-15 23:30N 01°14' E 103°53'0 0.3
2018-Apr-15 23:00N 01°14' E 103°53'0 0.1
2018-Apr-15 22:30N 01°15' E 103°53'0 0.0
2018-Apr-15 22:00N 01°15' E 103°53'0 0.0
2018-Apr-15 21:27N 01°15' E 103°53'0 0.0
2018-Apr-15 21:00N 01°15' E 103°53'0 0.0
2018-Apr-15 20:30N 01°15' E 103°53'0 0.0
2018-Apr-15 20:00N 01°15' E 103°53'0 0.0
2018-Apr-15 19:30N 01°15' E 103°53'0 0.1
2018-Apr-15 19:00N 01°14' E 103°53'0 0.1
2018-Apr-15 18:30N 01°14' E 103°53'0 0.1
2018-Apr-15 18:00N 01°14' E 103°53'0 0.1
2018-Apr-15 17:30N 01°14' E 103°53'0 0.1
2018-Apr-15 17:00N 01°14' E 103°53'0 0.0
2018-Apr-15 16:27N 01°14' E 103°53'0 0.0
2018-Apr-15 16:00N 01°14' E 103°53'0 0.0
2018-Apr-15 15:30N 01°14' E 103°53'0 0.0
2018-Apr-15 15:00N 01°14' E 103°53'0 0.0
2018-Apr-15 14:30N 01°14' E 103°53'0 0.0
2018-Apr-15 14:00N 01°14' E 103°53'0 0.0
2018-Apr-15 13:30N 01°14' E 103°53'0 0.0
2018-Apr-15 13:00N 01°14' E 103°53'0 0.0
2018-Apr-15 12:30N 01°14' E 103°53'0 0.0
2018-Apr-15 12:00N 01°14' E 103°53'0 0.1
2018-Apr-15 11:30N 01°14' E 103°53'0 0.0
2018-Apr-15 11:00N 01°14' E 103°53'0 0.0
2018-Apr-15 10:30N 01°14' E 103°53'0 0.1
2018-Apr-15 10:00N 01°14' E 103°53'0 0.1
2018-Apr-15 09:30N 01°15' E 103°53'0 0.1
2018-Apr-15 09:00N 01°15' E 103°53'0 0.3
2018-Apr-15 08:30N 01°15' E 103°53'0 0.0
2018-Apr-15 08:00N 01°15' E 103°53'0 0.0
2018-Apr-15 07:30N 01°15' E 103°53'0 0.1
2018-Apr-15 07:00N 01°15' E 103°53'0 0.1
2018-Apr-15 06:30N 01°15' E 103°53'0 0.1
2018-Apr-15 06:00N 01°15' E 103°53'0 0.0
2018-Apr-15 05:30N 01°15' E 103°53'0 0.1
2018-Apr-15 04:57N 01°15' E 103°53'0 0.1
2018-Apr-15 04:24N 01°14' E 103°53'0 0.1
2018-Apr-15 04:00N 01°14' E 103°53'0 0.0
2018-Apr-15 03:30N 01°14' E 103°53'0 0.0
2018-Apr-15 03:00N 01°14' E 103°53'0 0.0
2018-Apr-15 02:30N 01°14' E 103°53'0 0.1
2018-Apr-15 02:00N 01°14' E 103°53'0 0.1
2018-Apr-15 01:30N 01°14' E 103°53'0 0.0
2018-Apr-15 01:00N 01°14' E 103°53'0 0.0
2018-Apr-15 00:30N 01°14' E 103°53'0 0.0
2018-Apr-15 00:00N 01°14' E 103°53'0 0.0
2018-Apr-14 23:30N 01°14' E 103°53'0 0.1
2018-Apr-14 23:00N 01°14' E 103°53'0 0.0
2018-Apr-14 22:29N 01°14' E 103°53'0 0.1
2018-Apr-14 22:00N 01°14' E 103°53'0 0.0
2018-Apr-14 21:23N 01°14' E 103°53'0 0.0
2018-Apr-14 20:59N 01°14' E 103°53'0 0.0
2018-Apr-14 20:24N 01°15' E 103°53'0 0.0
2018-Apr-14 19:59N 01°15' E 103°53'0 0.0
2018-Apr-14 19:30N 01°15' E 103°53'0 0.0
2018-Apr-14 19:00N 01°14' E 103°53'0 0.1
2018-Apr-14 18:30N 01°15' E 103°53'0 0.0
2018-Apr-14 18:00N 01°15' E 103°53'1 2.9
2018-Apr-14 17:30N 01°13' E 103°53'611.1
2018-Apr-14 17:00N 01°13' E 103°47'3 6.0
2018-Apr-14 16:29N 01°16' E 103°46'0 0.1
2018-Apr-14 16:00N 01°16' E 103°46'0 0.0
2018-Apr-14 15:30N 01°16' E 103°46'0 0.0
2018-Apr-14 15:00N 01°16' E 103°46'0 0.0
2018-Apr-14 14:30N 01°16' E 103°46'0 0.0
2018-Apr-14 14:00N 01°16' E 103°46'0 0.0
2018-Apr-14 13:30N 01°16' E 103°46'0 0.0
2018-Apr-14 13:00N 01°16' E 103°46'0 0.0
2018-Apr-14 12:30N 01°16' E 103°46'0 0.0
2018-Apr-14 12:00N 01°16' E 103°46'0 0.0
2018-Apr-14 11:30N 01°16' E 103°46'0 0.0
2018-Apr-14 11:00N 01°16' E 103°46'0 0.0
2018-Apr-14 10:30N 01°16' E 103°46'0 0.0
2018-Apr-14 10:00N 01°16' E 103°46'0 0.0
2018-Apr-14 09:30N 01°16' E 103°46'0 0.0
2018-Apr-14 09:00N 01°16' E 103°46'0 0.0
2018-Apr-14 08:30N 01°16' E 103°46'0 0.0
2018-Apr-14 07:58N 01°16' E 103°46'1 2.4
2018-Apr-14 07:30N 01°15' E 103°46'5 9.6
2018-Apr-14 07:00N 01°13' E 103°42'511.0
2018-Apr-14 06:30N 01°13' E 103°36'4 8.8
2018-Apr-14 06:00N 01°11' E 103°32'510.8
2018-Apr-14 05:30N 01°10' E 103°27'713.5
2018-Apr-14 04:59N 01°14' E 103°21'814.4
2018-Apr-14 04:27N 01°19' E 103°15'  

Dump ship's entire track history